createdAt,value
2022-11-05T00:00:35.761Z,100.00
2022-11-05T00:03:28.466Z,100.00
2022-11-05T00:06:15.377Z,100.00
2022-11-05T00:09:02.174Z,100.00
2022-11-05T00:11:49.035Z,100.00
2022-11-05T00:14:36.211Z,100.00
2022-11-05T00:17:04.267Z,100.00
2022-11-05T00:19:32.327Z,100.00
2022-11-05T00:22:19.404Z,100.00
2022-11-05T00:25:06.628Z,100.00
2022-11-05T00:27:34.900Z,100.00
2022-11-05T00:30:03.518Z,100.00
2022-11-05T00:32:33.071Z,100.00
2022-11-05T00:35:01.348Z,100.00
2022-11-05T00:37:30.914Z,100.00
2022-11-05T00:39:59.942Z,100.00
2022-11-05T00:42:46.976Z,100.00
2022-11-05T00:45:15.551Z,100.00
2022-11-05T00:48:02.417Z,100.00
2022-11-05T00:50:31.200Z,100.00
2022-11-05T00:53:00.675Z,100.00
2022-11-05T00:55:38.745Z,100.00
2022-11-05T00:58:10.389Z,100.00
2022-11-05T01:00:41.450Z,100.00
2022-11-05T01:03:14.225Z,100.00
2022-11-05T01:05:49.449Z,100.00
2022-11-05T01:08:20.102Z,100.00
2022-11-05T01:10:55.821Z,100.00
2022-11-05T01:13:27.328Z,100.00
2022-11-05T01:15:56.779Z,100.00
2022-11-05T01:18:25.493Z,100.00
2022-11-05T01:20:54.032Z,100.00
2022-11-05T01:23:22.334Z,100.00
2022-11-05T01:25:50.481Z,100.00
2022-11-05T01:28:19.136Z,100.00
2022-11-05T01:30:55.868Z,100.00
2022-11-05T01:33:25.441Z,100.00
2022-11-05T01:35:53.820Z,100.00
2022-11-05T01:38:21.909Z,100.00
2022-11-05T01:40:50.013Z,100.00
2022-11-05T01:43:21.926Z,100.00
2022-11-05T01:45:54.731Z,100.00
2022-11-05T01:48:23.068Z,100.00
2022-11-05T01:50:59.511Z,100.00
2022-11-05T01:53:34.633Z,100.00
2022-11-05T01:56:24.378Z,100.00
2022-11-05T01:58:54.909Z,100.00
2022-11-05T02:01:24.110Z,100.00
2022-11-05T02:03:55.918Z,100.00
2022-11-05T02:06:26.202Z,100.00
2022-11-05T02:09:11.570Z,100.00
2022-11-05T02:11:40.090Z,100.00
2022-11-05T02:14:08.170Z,100.00
2022-11-05T02:16:50.647Z,100.00
2022-11-05T02:19:37.469Z,100.00
2022-11-05T02:22:42.867Z,100.00
2022-11-05T02:25:35.675Z,100.00
2022-11-05T02:28:09.709Z,100.00
2022-11-05T02:30:49.790Z,100.00
2022-11-05T02:33:23.528Z,100.00
2022-11-05T02:36:24.936Z,100.00
2022-11-05T02:38:52.888Z,100.00
2022-11-05T02:41:29.939Z,100.00
2022-11-05T02:44:26.823Z,100.00
2022-11-05T02:47:19.202Z,100.00
2022-11-05T02:50:07.568Z,100.00
2022-11-05T02:52:59.940Z,100.00
2022-11-05T02:55:45.324Z,100.00
2022-11-05T02:58:13.807Z,100.00
2022-11-05T03:00:53.649Z,100.00
2022-11-05T03:03:39.820Z,100.00
2022-11-05T03:06:07.981Z,100.00
2022-11-05T03:09:09.627Z,100.00
2022-11-05T03:12:04.100Z,100.00
2022-11-05T03:15:09.643Z,100.00
2022-11-05T03:17:58.705Z,100.00
2022-11-05T03:20:57.388Z,100.00
2022-11-05T03:23:33.498Z,100.00
2022-11-05T03:26:19.388Z,100.00
2022-11-05T03:28:56.627Z,100.00
2022-11-05T03:31:26.559Z,100.00
2022-11-05T03:33:56.000Z,100.00
2022-11-05T03:36:28.778Z,100.00
2022-11-05T03:39:02.776Z,100.00
2022-11-05T03:41:33.030Z,100.00
2022-11-05T03:44:05.766Z,100.00
2022-11-05T03:46:49.450Z,100.00
2022-11-05T03:49:28.450Z,100.00
2022-11-05T03:52:06.535Z,100.00
2022-11-05T03:54:35.353Z,100.00
2022-11-05T03:57:11.667Z,100.00
2022-11-05T03:59:45.743Z,100.00
2022-11-05T04:02:18.457Z,100.00
2022-11-05T04:04:46.681Z,100.00
2022-11-05T04:07:33.537Z,100.00
2022-11-05T04:10:20.234Z,100.00
2022-11-05T04:13:06.959Z,100.00
2022-11-05T04:15:54.943Z,100.00
2022-11-05T04:18:23.323Z,100.00
2022-11-05T04:21:10.067Z,100.00
2022-11-05T04:23:56.753Z,100.00
2022-11-05T04:26:24.770Z,100.00
2022-11-05T04:29:12.155Z,100.00
2022-11-05T04:31:40.779Z,100.00
2022-11-05T04:34:08.840Z,100.00
2022-11-05T04:36:37.322Z,100.00
2022-11-05T04:39:05.581Z,100.00
2022-11-05T04:41:33.623Z,100.00
2022-11-05T04:44:02.587Z,100.00
2022-11-05T04:46:30.603Z,100.00
2022-11-05T04:48:58.717Z,100.00
2022-11-05T04:51:27.489Z,100.00
2022-11-05T04:53:56.157Z,100.00
2022-11-05T04:56:25.470Z,100.00
2022-11-05T04:58:53.630Z,100.00
2022-11-05T05:01:24.026Z,100.00
2022-11-05T05:03:54.252Z,100.00
2022-11-05T05:06:22.748Z,100.00
2022-11-05T05:08:51.877Z,100.00
2022-11-05T05:11:22.142Z,100.00
2022-11-05T05:13:50.488Z,100.00
2022-11-05T05:16:22.242Z,100.00
2022-11-05T05:18:51.068Z,100.00
2022-11-05T05:21:39.451Z,100.00
2022-11-05T05:24:18.893Z,100.00
2022-11-05T05:26:50.842Z,100.00
2022-11-05T05:29:20.523Z,100.00
2022-11-05T05:31:49.103Z,100.00
2022-11-05T05:34:17.313Z,100.00
2022-11-05T05:36:45.387Z,100.00
2022-11-05T05:39:15.576Z,100.00
2022-11-05T05:41:43.689Z,100.00
2022-11-05T05:44:11.740Z,100.00
2022-11-05T05:46:40.412Z,100.00
2022-11-05T05:49:12.721Z,100.00
2022-11-05T05:51:41.093Z,100.00
2022-11-05T05:54:10.718Z,100.00
2022-11-05T05:56:43.393Z,100.00
2022-11-05T05:59:12.407Z,100.00
2022-11-05T06:01:41.200Z,100.00
2022-11-05T06:04:10.744Z,100.00
2022-11-05T06:06:39.312Z,100.00
2022-11-05T06:09:07.391Z,100.00
2022-11-05T06:11:35.449Z,100.00
2022-11-05T06:14:03.561Z,100.00
2022-11-05T06:16:36.067Z,100.00
2022-11-05T06:19:04.700Z,100.00
2022-11-05T06:21:33.021Z,100.00
2022-11-05T06:24:03.284Z,100.00
2022-11-05T06:26:31.753Z,100.00
2022-11-05T06:28:59.794Z,100.00
2022-11-05T06:31:27.834Z,100.00
2022-11-05T06:33:55.936Z,100.00
2022-11-05T06:36:24.049Z,100.00
2022-11-05T06:38:52.581Z,100.00
2022-11-05T06:41:20.619Z,100.00
2022-11-05T06:43:48.737Z,100.00
2022-11-05T06:46:17.245Z,100.00
2022-11-05T06:48:45.738Z,100.00
2022-11-05T06:51:13.773Z,100.00
2022-11-05T06:53:42.365Z,100.00
2022-11-05T06:56:10.874Z,100.00
2022-11-05T06:58:39.430Z,100.00
2022-11-05T07:01:10.971Z,100.00
2022-11-05T07:03:39.797Z,100.00
2022-11-05T07:06:08.236Z,100.00
2022-11-05T07:08:38.132Z,100.00
2022-11-05T07:11:06.566Z,100.00
2022-11-05T07:13:34.701Z,100.00
2022-11-05T07:16:10.267Z,100.00
2022-11-05T07:18:45.253Z,100.00
2022-11-05T07:21:13.687Z,100.00
2022-11-05T07:23:41.881Z,100.00
2022-11-05T07:26:09.988Z,100.00
2022-11-05T07:28:38.600Z,100.00
2022-11-05T07:31:06.788Z,100.00
2022-11-05T07:33:36.667Z,100.00
2022-11-05T07:36:05.745Z,100.00
2022-11-05T07:38:33.890Z,100.00
2022-11-05T07:41:02.209Z,100.00
2022-11-05T07:43:33.089Z,100.00
2022-11-05T07:46:01.448Z,100.00
2022-11-05T07:48:29.619Z,100.00
2022-11-05T07:50:57.769Z,100.00
2022-11-05T07:53:25.928Z,100.00
2022-11-05T07:55:54.437Z,100.00
2022-11-05T07:58:22.673Z,100.00
2022-11-05T08:00:50.958Z,100.00
2022-11-05T08:03:20.720Z,100.00
2022-11-05T08:05:49.960Z,100.00
2022-11-05T08:08:20.008Z,100.00
2022-11-05T08:10:48.151Z,100.00
2022-11-05T08:13:16.934Z,100.00
2022-11-05T08:15:45.717Z,100.00
2022-11-05T08:18:16.533Z,100.00
2022-11-05T08:20:46.633Z,100.00
2022-11-05T08:23:15.155Z,100.00
2022-11-05T08:25:43.818Z,100.00
2022-11-05T08:28:13.830Z,100.00
2022-11-05T08:30:42.627Z,100.00
2022-11-05T08:33:13.273Z,100.00
2022-11-05T08:35:41.935Z,100.00
2022-11-05T08:38:14.867Z,100.00
2022-11-05T08:40:44.957Z,100.00
2022-11-05T08:43:14.820Z,100.00
2022-11-05T08:45:43.934Z,100.00
2022-11-05T08:48:18.235Z,100.00
2022-11-05T08:50:48.077Z,100.00
2022-11-05T08:53:17.293Z,100.00
2022-11-05T08:55:47.754Z,100.00
2022-11-05T08:58:17.334Z,100.00
2022-11-05T09:00:48.479Z,100.00
2022-11-05T09:03:17.345Z,100.00
2022-11-05T09:05:45.750Z,100.00
2022-11-05T09:08:16.911Z,100.00
2022-11-05T09:10:46.002Z,100.00
2022-11-05T09:13:18.796Z,100.00
2022-11-05T09:15:50.341Z,100.00
2022-11-05T09:18:19.914Z,100.00
2022-11-05T09:20:48.472Z,100.00
2022-11-05T09:23:17.120Z,100.00
2022-11-05T09:25:45.883Z,100.00
2022-11-05T09:28:17.576Z,100.00
2022-11-05T09:30:48.505Z,100.00
2022-11-05T09:33:18.974Z,100.00
2022-11-05T09:35:47.622Z,100.00
2022-11-05T09:38:16.053Z,100.00
2022-11-05T09:41:05.176Z,100.00
2022-11-05T09:43:44.825Z,100.00
2022-11-05T09:46:25.912Z,100.00
2022-11-05T09:49:04.489Z,100.00
2022-11-05T09:51:34.737Z,100.00
2022-11-05T09:54:04.356Z,100.00
2022-11-05T09:56:37.354Z,100.00
2022-11-05T09:59:18.130Z,100.00
2022-11-05T10:01:47.260Z,100.00
2022-11-05T10:04:26.167Z,100.00
2022-11-05T10:07:00.046Z,100.00
2022-11-05T10:09:52.057Z,100.00
2022-11-05T10:12:45.908Z,100.00
2022-11-05T10:15:20.715Z,100.00
2022-11-05T10:18:12.743Z,100.00
2022-11-05T10:20:40.770Z,100.00
2022-11-05T10:23:18.347Z,100.00
2022-11-05T10:25:51.537Z,100.00
2022-11-05T10:28:23.598Z,100.00
2022-11-05T10:30:58.620Z,100.00
2022-11-05T10:33:46.826Z,100.00
2022-11-05T10:36:33.386Z,100.00
2022-11-05T10:39:09.318Z,100.00
2022-11-05T10:41:59.547Z,100.00
2022-11-05T10:44:27.855Z,99.94
2022-11-05T10:47:26.997Z,99.69
2022-11-05T10:50:01.877Z,99.39
2022-11-05T10:52:57.380Z,99.44
2022-11-05T10:55:29.904Z,98.68
2022-11-05T10:58:17.364Z,98.22
2022-11-05T11:01:01.910Z,97.79
2022-11-05T11:03:42.535Z,97.26
2022-11-05T11:06:20.936Z,96.54
2022-11-05T11:08:51.519Z,96.43
2022-11-05T11:11:38.575Z,96.42
2022-11-05T11:14:12.819Z,96.32
2022-11-05T11:16:46.349Z,96.06
2022-11-05T11:19:21.410Z,95.97
2022-11-05T11:22:12.770Z,95.34
2022-11-05T11:24:54.065Z,94.76
2022-11-05T11:27:29.283Z,93.69
2022-11-05T11:30:02.628Z,93.09
2022-11-05T11:32:37.728Z,91.77
2022-11-05T11:35:08.974Z,91.60
2022-11-05T11:37:42.215Z,91.38
2022-11-05T11:40:22.225Z,91.07
2022-11-05T11:42:57.482Z,90.52
2022-11-05T11:45:35.980Z,89.85
2022-11-05T11:48:07.925Z,89.47
2022-11-05T11:50:35.882Z,88.76
2022-11-05T11:53:16.343Z,88.37
2022-11-05T11:56:03.505Z,87.43
2022-11-05T11:58:44.251Z,86.20
2022-11-05T12:01:37.431Z,86.87
2022-11-05T12:04:08.617Z,86.04
2022-11-05T12:06:45.148Z,85.89
2022-11-05T12:09:20.251Z,84.22
2022-11-05T12:11:57.912Z,84.21
2022-11-05T12:15:04.510Z,84.11
2022-11-05T12:18:03.445Z,83.94
2022-11-05T12:20:34.295Z,83.58
2022-11-05T12:23:20.660Z,84.15
2022-11-05T12:26:01.718Z,84.35
2022-11-05T12:28:57.720Z,83.81
2022-11-05T12:32:05.444Z,83.61
2022-11-05T12:35:02.673Z,82.65
2022-11-05T12:37:34.563Z,82.42
2022-11-05T12:40:27.308Z,82.31
2022-11-05T12:43:11.736Z,81.74
2022-11-05T12:45:55.263Z,81.77
2022-11-05T12:48:42.468Z,81.60
2022-11-05T12:51:16.657Z,81.20
2022-11-05T12:53:52.650Z,80.76
2022-11-05T12:57:10.283Z,79.98
2022-11-05T12:59:52.072Z,80.20
2022-11-05T13:02:32.536Z,79.92
2022-11-05T13:05:35.006Z,80.32
2022-11-05T13:08:09.078Z,80.24
2022-11-05T13:10:44.535Z,80.25
2022-11-05T13:13:35.642Z,80.38
2022-11-05T13:16:16.154Z,80.62
2022-11-05T13:18:49.887Z,80.85
2022-11-05T13:21:23.508Z,81.10
2022-11-05T13:24:17.191Z,81.15
2022-11-05T13:27:23.420Z,81.21
2022-11-05T13:30:18.766Z,81.56
2022-11-05T13:32:54.197Z,81.68
2022-11-05T13:35:40.259Z,81.84
2022-11-05T13:38:37.127Z,82.05
2022-11-05T13:41:31.267Z,82.39
2022-11-05T13:44:26.835Z,82.43
2022-11-05T13:46:54.888Z,82.40
2022-11-05T13:49:54.841Z,82.56
2022-11-05T13:52:51.258Z,82.77
2022-11-05T13:55:31.536Z,82.60
2022-11-05T13:58:11.542Z,82.95
2022-11-05T14:01:07.959Z,82.80
2022-11-05T14:03:37.386Z,82.87
2022-11-05T14:06:10.947Z,83.06
2022-11-05T14:08:45.855Z,83.27
2022-11-05T14:11:25.701Z,83.14
2022-11-05T14:13:59.683Z,82.38
2022-11-05T14:16:53.399Z,81.53
2022-11-05T14:19:30.804Z,81.13
2022-11-05T14:21:59.709Z,81.16
2022-11-05T14:24:42.861Z,81.08
2022-11-05T14:27:13.789Z,80.95
2022-11-05T14:29:49.788Z,80.90
2022-11-05T14:32:18.260Z,81.10
2022-11-05T14:35:04.271Z,81.07
2022-11-05T14:37:40.239Z,81.18
2022-11-05T14:40:29.516Z,81.35
2022-11-05T14:43:02.309Z,81.53
2022-11-05T14:45:37.116Z,81.83
2022-11-05T14:48:24.726Z,81.70
2022-11-05T14:50:52.900Z,82.44
2022-11-05T14:53:32.355Z,82.47
2022-11-05T14:56:09.005Z,82.87
2022-11-05T14:58:41.747Z,83.38
2022-11-05T15:01:33.352Z,83.89
2022-11-05T15:04:17.380Z,84.16
2022-11-05T15:07:03.872Z,84.41
2022-11-05T15:09:42.810Z,84.62
2022-11-05T15:12:18.842Z,85.12
2022-11-05T15:15:01.579Z,85.40
2022-11-05T15:17:45.975Z,85.69
2022-11-05T15:20:18.839Z,86.38
2022-11-05T15:22:52.703Z,85.94
2022-11-05T15:25:30.811Z,86.18
2022-11-05T15:28:06.584Z,86.55
2022-11-05T15:30:34.778Z,86.69
2022-11-05T15:33:20.782Z,86.83
2022-11-05T15:35:49.203Z,86.71
2022-11-05T15:38:31.121Z,87.22
2022-11-05T15:41:15.626Z,87.23
2022-11-05T15:43:47.912Z,87.40
2022-11-05T15:46:25.682Z,87.33
2022-11-05T15:49:17.357Z,87.64
2022-11-05T15:51:45.771Z,87.86
2022-11-05T15:54:36.042Z,87.88
2022-11-05T15:57:04.693Z,87.95
2022-11-05T15:59:32.899Z,88.02
2022-11-05T16:02:21.042Z,88.01
2022-11-05T16:04:49.787Z,88.14
2022-11-05T16:07:18.913Z,88.15
2022-11-05T16:10:05.054Z,88.28
2022-11-05T16:12:37.062Z,88.57
2022-11-05T16:15:08.153Z,88.74
2022-11-05T16:17:49.296Z,88.82
2022-11-05T16:20:35.305Z,89.15
2022-11-05T16:23:23.388Z,89.29
2022-11-05T16:25:51.923Z,89.25
2022-11-05T16:28:28.684Z,89.09
2022-11-05T16:30:58.146Z,89.34
2022-11-05T16:33:33.190Z,89.58
2022-11-05T16:36:01.371Z,89.61
2022-11-05T16:38:29.429Z,89.82
2022-11-05T16:40:59.103Z,89.59
2022-11-05T16:43:27.681Z,89.73
2022-11-05T16:45:59.179Z,90.16
2022-11-05T16:48:27.816Z,90.31
2022-11-05T16:50:56.014Z,90.27
2022-11-05T16:53:24.429Z,90.39
2022-11-05T16:55:52.649Z,90.32
2022-11-05T16:58:26.323Z,90.27
2022-11-05T17:01:12.247Z,90.62
2022-11-05T17:03:40.402Z,90.73
2022-11-05T17:06:08.739Z,91.11
2022-11-05T17:08:36.825Z,90.79
2022-11-05T17:11:06.347Z,91.12
2022-11-05T17:13:34.735Z,91.14
2022-11-05T17:16:02.888Z,91.17
2022-11-05T17:18:31.216Z,91.37
2022-11-05T17:20:59.382Z,91.46
2022-11-05T17:23:28.029Z,91.52
2022-11-05T17:26:02.369Z,91.46
2022-11-05T17:28:31.562Z,91.60
2022-11-05T17:31:01.477Z,91.70
2022-11-05T17:33:32.617Z,91.70
2022-11-05T17:36:05.042Z,92.07
2022-11-05T17:38:33.899Z,91.88
2022-11-05T17:41:02.485Z,91.97
2022-11-05T17:43:30.628Z,91.86
2022-11-05T17:46:04.296Z,91.97
2022-11-05T17:48:33.016Z,91.83
2022-11-05T17:51:01.187Z,91.77
2022-11-05T17:53:29.412Z,92.04
2022-11-05T17:55:58.401Z,92.24
2022-11-05T17:58:26.779Z,92.27
2022-11-05T18:00:55.599Z,92.05
2022-11-05T18:03:23.804Z,92.37
2022-11-05T18:05:55.573Z,92.35
2022-11-05T18:08:24.491Z,92.22
2022-11-05T18:10:53.454Z,92.56
2022-11-05T18:13:22.743Z,92.37
2022-11-05T18:15:52.772Z,92.34
2022-11-05T18:18:21.809Z,92.34
2022-11-05T18:20:50.545Z,92.50
2022-11-05T18:23:18.874Z,92.27
2022-11-05T18:25:47.162Z,92.51
2022-11-05T18:28:18.466Z,92.97
2022-11-05T18:30:46.790Z,93.04
2022-11-05T18:33:15.246Z,93.08
2022-11-05T18:35:45.167Z,93.09
2022-11-05T18:38:13.351Z,93.42
2022-11-05T18:40:41.588Z,93.40
2022-11-05T18:43:10.523Z,93.58
2022-11-05T18:45:39.085Z,93.30
2022-11-05T18:48:07.407Z,93.28
2022-11-05T18:50:36.026Z,93.51
2022-11-05T18:53:04.153Z,93.53
2022-11-05T18:55:32.252Z,93.57
2022-11-05T18:58:00.447Z,93.32
2022-11-05T19:00:28.615Z,93.76
2022-11-05T19:02:58.690Z,93.73
2022-11-05T19:05:29.640Z,94.05
2022-11-05T19:07:58.574Z,93.96
2022-11-05T19:10:27.735Z,94.04
2022-11-05T19:12:56.304Z,93.67
2022-11-05T19:15:27.135Z,94.08
2022-11-05T19:17:55.482Z,94.07
2022-11-05T19:20:24.152Z,94.09
2022-11-05T19:22:53.687Z,94.24
2022-11-05T19:25:22.702Z,94.23
2022-11-05T19:27:51.347Z,94.16
2022-11-05T19:30:19.602Z,94.38
2022-11-05T19:32:48.094Z,94.29
2022-11-05T19:35:16.930Z,94.16
2022-11-05T19:37:45.444Z,94.49
2022-11-05T19:40:14.284Z,94.18
2022-11-05T19:42:44.942Z,94.18
2022-11-05T19:45:43.031Z,94.23
2022-11-05T19:48:02.705Z,93.96
2022-11-05T19:50:31.995Z,94.12
2022-11-05T19:53:02.178Z,94.43
2022-11-05T19:55:33.030Z,94.10
2022-11-05T19:58:02.051Z,94.12
2022-11-05T20:00:32.899Z,94.13
2022-11-05T20:03:02.063Z,94.42
2022-11-05T20:05:30.622Z,94.53
2022-11-05T20:07:59.676Z,94.21
2022-11-05T20:10:28.601Z,94.60
2022-11-05T20:12:57.983Z,94.31
2022-11-05T20:15:26.638Z,94.53
2022-11-05T20:17:56.576Z,94.71
2022-11-05T20:20:26.672Z,94.86
2022-11-05T20:22:55.787Z,94.63
2022-11-05T20:25:26.298Z,94.74
2022-11-05T20:27:58.572Z,94.96
2022-11-05T20:30:28.388Z,95.42
2022-11-05T20:32:58.547Z,95.02
2022-11-05T20:35:28.507Z,95.22
2022-11-05T20:37:58.981Z,95.39
2022-11-05T20:40:27.185Z,95.52
2022-11-05T20:42:56.611Z,95.59
2022-11-05T20:45:24.909Z,95.60
2022-11-05T20:47:54.141Z,96.00
2022-11-05T20:50:24.435Z,96.15
2022-11-05T20:52:53.552Z,96.27
2022-11-05T20:55:23.997Z,96.48
2022-11-05T20:57:53.872Z,96.43
2022-11-05T21:00:27.758Z,96.69
2022-11-05T21:02:59.790Z,96.62
2022-11-05T21:05:34.244Z,96.84
2022-11-05T21:08:06.181Z,97.02
2022-11-05T21:10:36.937Z,97.18
2022-11-05T21:13:10.951Z,97.04
2022-11-05T21:16:21.621Z,97.25
2022-11-05T21:19:26.444Z,97.47
2022-11-05T21:23:10.923Z,97.17
2022-11-05T21:26:18.601Z,97.22
2022-11-05T21:28:51.773Z,97.18
2022-11-05T21:31:21.703Z,97.27
2022-11-05T21:33:55.140Z,96.93
2022-11-05T21:36:35.983Z,96.81
2022-11-05T21:39:09.093Z,97.35
2022-11-05T21:41:43.553Z,96.92
2022-11-05T21:44:11.970Z,96.90
2022-11-05T21:46:40.789Z,96.79
2022-11-05T21:49:09.683Z,96.79
2022-11-05T21:51:56.503Z,96.70
2022-11-05T21:54:43.531Z,97.14
2022-11-05T21:57:36.189Z,97.42
2022-11-05T22:00:09.816Z,97.40
2022-11-05T22:02:39.331Z,97.96
2022-11-05T22:05:08.196Z,97.85
2022-11-05T22:07:38.564Z,97.89
2022-11-05T22:10:14.833Z,98.11
2022-11-05T22:12:45.879Z,98.24
2022-11-05T22:15:15.010Z,98.02
2022-11-05T22:17:47.206Z,98.06
2022-11-05T22:20:16.991Z,98.36
2022-11-05T22:22:45.629Z,98.23
2022-11-05T22:25:14.894Z,98.54
2022-11-05T22:27:44.217Z,98.59
2022-11-05T22:30:13.794Z,98.40
2022-11-05T22:32:43.178Z,98.48
2022-11-05T22:35:11.345Z,98.35
2022-11-05T22:37:39.632Z,98.37
2022-11-05T22:40:08.365Z,98.26
2022-11-05T22:42:42.761Z,98.41
2022-11-05T22:45:12.324Z,98.25
2022-11-05T22:47:44.366Z,98.30
2022-11-05T22:50:15.140Z,97.91
2022-11-05T22:52:46.944Z,97.99
2022-11-05T22:55:18.478Z,98.13
2022-11-05T22:57:50.888Z,98.18
2022-11-05T23:00:19.472Z,98.15
2022-11-05T23:02:48.503Z,98.30
2022-11-05T23:05:16.969Z,98.04
2022-11-05T23:08:06.993Z,98.29
2022-11-05T23:10:58.763Z,98.76
2022-11-05T23:13:29.632Z,98.75
2022-11-05T23:16:16.671Z,98.75
2022-11-05T23:19:03.776Z,98.82
2022-11-05T23:21:50.843Z,98.46
2022-11-05T23:24:19.445Z,98.74
2022-11-05T23:26:50.713Z,98.64
2022-11-05T23:29:24.201Z,99.17
2022-11-05T23:32:12.495Z,99.06
2022-11-05T23:34:44.013Z,99.08
2022-11-05T23:37:31.382Z,99.39
2022-11-05T23:40:02.320Z,99.13
2022-11-05T23:42:49.540Z,99.30
2022-11-05T23:45:40.727Z,99.29
2022-11-05T23:48:18.650Z,99.50
2022-11-05T23:51:09.498Z,99.61
2022-11-05T23:53:42.627Z,99.59
2022-11-05T23:56:14.570Z,99.49
2022-11-05T23:58:43.768Z,99.69
